Time;durP1;ratioP1;P1;durP2;ratioP2;P2;SDS_P1;SDS_P2;PMS_P1;PMS_P2;Temp;Humidity;BMP_temperature;BMP_pressure;BME280_temperature;BME280_humidity;BME280_pressure;Samples;Min_cycle;Max_cycle;Signal;HPM_P1;HPM_P2
2022/11/19 00:03:30;;;;;;;13.63;4.63;;;;;;;8.98;100.00;98870.13;12189437;19;20408;-86
2022/11/19 00:07:32;;;;;;;8.82;4.25;;;;;;;8.99;100.00;98869.88;12208872;19;20604;-85
2022/11/19 00:15:54;;;;;;;8.55;4.60;;;;;;;9.04;100.00;98861.66;12191216;19;20364;-85
2022/11/19 00:19:55;;;;;;;9.90;3.90;;;;;;;9.06;100.00;98859.47;12221308;19;20032;-84
2022/11/19 00:23:57;;;;;;;8.30;4.50;;;;;;;9.07;100.00;98863.88;12197124;19;20551;-85
2022/11/19 00:27:59;;;;;;;6.72;3.88;;;;;;;9.10;100.00;98868.00;12219290;19;20477;-86
2022/11/19 00:32:00;;;;;;;11.30;4.50;;;;;;;9.11;100.00;98859.50;12214637;19;20014;-84
2022/11/19 00:36:04;;;;;;;9.60;4.63;;;;;;;9.13;100.00;98862.84;12195934;19;20019;-84
2022/11/19 00:40:07;;;;;;;7.65;4.05;;;;;;;9.13;100.00;98864.72;12219704;19;20010;-83
2022/11/19 00:44:09;;;;;;;9.85;4.82;;;;;;;9.14;100.00;98869.16;12217290;19;20373;-84
2022/11/19 00:48:10;;;;;;;8.07;4.85;;;;;;;9.16;100.00;98877.97;12198893;19;20018;-85
2022/11/19 00:52:12;;;;;;;10.43;4.65;;;;;;;9.16;100.00;98866.13;12214729;19;20021;-85
2022/11/19 00:56:16;;;;;;;9.50;4.93;;;;;;;9.20;100.00;98867.28;12214660;19;20039;-86
2022/11/19 01:00:18;;;;;;;9.30;4.90;;;;;;;9.23;100.00;98864.00;12193829;19;20006;-84
2022/11/19 01:04:19;;;;;;;11.48;5.05;;;;;;;9.24;100.00;98871.16;12216660;19;20042;-84
2022/11/19 01:08:21;;;;;;;11.98;5.45;;;;;;;9.22;100.00;98873.31;12213648;19;20011;-80
2022/11/19 01:12:23;;;;;;;11.13;5.38;;;;;;;9.22;100.00;98870.56;12191460;19;20011;-85
2022/11/19 01:16:30;;;;;;;10.52;5.60;;;;;;;9.26;100.00;98866.22;12213173;19;20014;-81
2022/11/19 01:20:32;;;;;;;11.70;5.82;;;;;;;9.29;100.00;98873.94;12215984;19;20015;-84
2022/11/19 01:24:34;;;;;;;15.07;6.68;;;;;;;9.29;100.00;98876.69;12187409;19;20010;-84
2022/11/19 01:28:36;;;;;;;12.38;6.60;;;;;;;9.31;100.00;98880.84;12213755;19;20472;-85
2022/11/19 01:32:37;;;;;;;11.33;5.80;;;;;;;9.35;100.00;98878.38;12207898;19;20043;-85
2022/11/19 01:36:39;;;;;;;14.52;6.40;;;;;;;9.35;100.00;98879.19;12189179;19;20021;-83
2022/11/19 01:40:43;;;;;;;11.88;5.70;;;;;;;9.34;100.00;98884.97;12212232;19;22534;-85
2022/11/19 01:44:57;;;;;;;14.30;6.38;;;;;;;9.36;100.00;98880.84;12187003;19;20046;-84
2022/11/19 01:48:59;;;;;;;11.68;6.63;;;;;;;9.39;100.00;98885.00;12213119;19;20010;-84
2022/11/19 01:53:01;;;;;;;15.55;6.13;;;;;;;9.40;100.00;98889.41;12209513;19;20022;-85
2022/11/19 01:57:07;;;;;;;13.23;6.25;;;;;;;9.40;100.00;98888.56;12190605;19;21550;-83
2022/11/19 02:01:09;;;;;;;12.40;6.38;;;;;;;9.41;100.00;98880.06;12213886;19;20081;-83
2022/11/19 02:05:11;;;;;;;14.60;6.47;;;;;;;9.43;100.00;98883.38;12213118;19;20365;-83
2022/11/19 02:09:13;;;;;;;12.25;6.10;;;;;;;9.42;100.00;98878.97;12193531;19;20027;-84
2022/11/19 02:13:33;;;;;;;10.68;4.95;;;;;;;9.42;100.00;98881.72;12213298;19;20007;-83
2022/11/19 02:17:50;;;;;;;10.38;4.70;;;;;;;9.39;100.00;98876.75;12214922;19;20007;-85
2022/11/19 02:22:07;;;;;;;13.18;5.63;;;;;;;9.40;100.00;98880.31;12194457;19;20011;-84
2022/11/19 02:26:29;;;;;;;15.77;7.88;;;;;;;9.28;100.00;98886.84;12224821;19;20038;-83
2022/11/19 02:30:50;;;;;;;15.80;7.00;;;;;;;9.00;100.00;98885.25;12217506;19;20082;-82
2022/11/19 02:35:00;;;;;;;14.18;7.03;;;;;;;8.83;100.00;98884.53;12260506;19;20002;-85
2022/11/19 02:39:12;;;;;;;12.15;5.57;;;;;;;8.67;100.00;98892.66;12236720;19;20000;-85
2022/11/19 02:43:21;;;;;;;12.93;5.70;;;;;;;8.48;100.00;98893.25;12238733;19;20042;-85
2022/11/19 02:47:51;;;;;;;9.73;5.22;;;;;;;8.32;100.00;98893.06;12230678;19;20074;-84
2022/11/19 02:51:53;;;;;;;9.60;5.20;;;;;;;8.20;100.00;98895.97;12196518;19;20646;-84
2022/11/19 02:56:10;;;;;;;8.32;4.72;;;;;;;8.09;100.00;98887.84;12204714;19;20464;-84
2022/11/19 03:04:32;;;;;;;9.98;4.13;;;;;;;7.89;100.00;98904.91;12212499;19;20035;-84
2022/11/19 03:08:34;;;;;;;7.22;3.55;;;;;;;7.82;100.00;98907.00;12209563;19;20780;-84
2022/11/19 03:12:44;;;;;;;6.85;3.75;;;;;;;7.71;100.00;98912.34;12192263;19;20010;-84
2022/11/19 03:17:07;;;;;;;7.38;3.55;;;;;;;7.61;100.00;98908.63;12213573;19;20025;-84
2022/11/19 03:21:14;;;;;;;10.10;4.30;;;;;;;7.45;100.00;98913.91;12190300;19;20011;-85
2022/11/19 03:25:21;;;;;;;9.93;4.13;;;;;;;7.31;100.00;98912.59;12213509;19;20078;-85
2022/11/19 03:29:26;;;;;;;8.70;3.97;;;;;;;7.24;100.00;98923.72;12210942;19;20381;-84
2022/11/19 03:33:30;;;;;;;7.60;3.75;;;;;;;7.19;100.00;98928.28;12188685;19;20010;-83
2022/11/19 03:37:37;;;;;;;8.02;4.20;;;;;;;7.13;100.00;98921.88;12215164;19;20059;-82
2022/11/19 03:41:41;;;;;;;6.10;3.45;;;;;;;7.10;100.00;98919.66;12214214;19;20034;-83
2022/11/19 03:45:46;;;;;;;6.15;3.17;;;;;;;7.01;100.00;98921.97;12184297;19;20006;-84
2022/11/19 03:49:55;;;;;;;6.05;2.72;;;;;;;6.98;100.00;98930.69;12218418;19;20492;-83
2022/11/19 03:53:57;;;;;;;5.07;2.40;;;;;;;6.85;100.00;98934.56;12195418;19;20010;-81
2022/11/19 03:58:04;;;;;;;6.97;2.67;;;;;;;6.80;100.00;98929.00;12224387;19;20011;-84
2022/11/19 04:02:08;;;;;;;4.75;2.53;;;;;;;6.77;100.00;98947.84;12219170;19;20007;-81
2022/11/19 04:06:10;;;;;;;7.15;3.15;;;;;;;6.56;100.00;98976.75;12194336;19;20018;-84
2022/11/19 04:10:12;;;;;;;10.75;3.40;;;;;;;6.36;100.00;98960.75;12219627;19;20007;-83
2022/11/19 04:14:13;;;;;;;7.35;3.47;;;;;;;6.32;100.00;98962.31;12216858;19;20689;-82
2022/11/19 04:18:15;;;;;;;4.70;2.58;;;;;;;6.22;100.00;98965.69;12198429;19;20028;-82
2022/11/19 04:22:17;;;;;;;6.68;3.10;;;;;;;6.23;100.00;98961.88;12219423;19;20021;-82
2022/11/19 04:26:18;;;;;;;5.18;2.75;;;;;;;6.23;100.00;98956.38;12217051;19;20040;-82
2022/11/19 04:30:20;;;;;;;8.27;3.05;;;;;;;6.16;100.00;98958.44;12196561;19;20010;-82
2022/11/19 04:34:21;;;;;;;6.07;3.20;;;;;;;6.14;100.00;98947.72;12215540;19;20007;-82
2022/11/19 04:38:23;;;;;;;7.00;2.72;;;;;;;6.18;100.00;98941.78;12221502;19;20622;-81
2022/11/19 04:42:25;;;;;;;5.35;2.72;;;;;;;6.14;100.00;98949.63;12197496;19;20685;-83
2022/11/19 04:46:26;;;;;;;6.05;3.05;;;;;;;6.05;100.00;98940.16;12216230;19;20010;-83
2022/11/19 04:50:28;;;;;;;6.35;3.22;;;;;;;6.02;100.00;98949.66;12217416;19;20119;-82
2022/11/19 04:54:30;;;;;;;7.60;3.87;;;;;;;5.98;100.00;98970.38;12191041;19;20361;-83
2022/11/19 04:58:32;;;;;;;9.30;3.80;;;;;;;5.87;100.00;98963.81;12219095;19;20437;-83
2022/11/19 05:02:34;;;;;;;8.43;3.90;;;;;;;5.86;100.00;98962.16;12216230;19;20003;-81
2022/11/19 05:06:37;;;;;;;9.43;4.30;;;;;;;5.85;100.00;98960.47;12191863;19;20010;-81
2022/11/19 05:10:38;;;;;;;7.15;3.70;;;;;;;5.82;100.00;98957.41;12217113;19;20496;-82
2022/11/19 05:14:40;;;;;;;8.10;4.30;;;;;;;5.74;100.00;98966.81;12214098;19;20010;-82
2022/11/19 05:18:42;;;;;;;6.57;3.63;;;;;;;5.67;100.00;98963.34;12192753;19;20433;-84
2022/11/19 05:22:44;;;;;;;8.65;3.90;;;;;;;5.62;100.00;98957.75;12214205;19;20634;-84
2022/11/19 05:26:45;;;;;;;8.73;4.55;;;;;;;5.58;100.00;98962.06;12194681;19;20006;-83
2022/11/19 05:30:47;;;;;;;9.98;4.18;;;;;;;5.55;100.00;98952.44;12210713;19;20497;-84
2022/11/19 05:34:48;;;;;;;8.15;3.92;;;;;;;5.49;100.00;98967.03;12210904;19;20003;-82
2022/11/19 05:38:50;;;;;;;12.32;4.50;;;;;;;5.42;100.00;98969.91;12197179;19;20010;-82
2022/11/19 05:42:52;;;;;;;9.30;5.00;;;;;;;5.37;100.00;98964.31;12216054;19;20051;-85
2022/11/19 05:46:55;;;;;;;9.85;4.55;;;;;;;5.33;100.00;98968.59;12217608;19;20031;-82
2022/11/19 05:50:57;;;;;;;8.63;4.68;;;;;;;5.29;100.00;98978.31;12198139;19;20492;-84
2022/11/19 05:54:58;;;;;;;9.65;4.38;;;;;;;5.20;100.00;98975.09;12209077;19;20062;-82
2022/11/19 05:59:00;;;;;;;8.23;4.47;;;;;;;5.10;100.00;98974.00;12212852;19;20060;-84
2022/11/19 06:03:02;;;;;;;10.50;4.78;;;;;;;5.08;100.00;98967.94;12202161;19;20004;-83
2022/11/19 06:07:04;;;;;;;10.27;5.20;;;;;;;5.00;100.00;98972.69;12213029;19;20072;-81
2022/11/19 06:11:06;;;;;;;8.82;4.53;;;;;;;5.00;100.00;98975.44;12211199;19;20472;-83
2022/11/19 06:15:08;;;;;;;7.50;4.30;;;;;;;4.98;100.00;98977.53;12189465;19;20090;-82
2022/11/19 06:19:10;;;;;;;7.73;3.83;;;;;;;4.94;100.00;98970.91;12212209;19;20014;-82
2022/11/19 06:23:11;;;;;;;9.13;4.18;;;;;;;4.86;100.00;98981.31;12214970;19;20078;-81
2022/11/19 06:27:13;;;;;;;8.80;3.85;;;;;;;4.83;100.00;98985.34;12200016;19;20074;-82
2022/11/19 06:31:14;;;;;;;7.72;3.92;;;;;;;4.87;100.00;98989.25;12224557;19;20015;-82
2022/11/19 06:35:16;;;;;;;8.45;3.88;;;;;;;4.87;100.00;99010.28;12212433;19;20013;-83
2022/11/19 06:39:18;;;;;;;10.73;4.53;;;;;;;4.87;100.00;99021.19;12191148;19;20031;-83
2022/11/19 06:43:20;;;;;;;8.82;3.83;;;;;;;4.92;100.00;99010.41;12214277;19;20073;-83
2022/11/19 06:47:21;;;;;;;10.40;4.82;;;;;;;4.90;100.00;99012.53;12226294;19;20094;-83
2022/11/19 06:51:23;;;;;;;10.43;4.53;;;;;;;4.91;100.00;99016.94;12248766;19;20007;-82
2022/11/19 06:55:26;;;;;;;10.98;5.78;;;;;;;4.88;100.00;99020.13;12266000;19;20019;-83
2022/11/19 06:59:28;;;;;;;10.77;5.75;;;;;;;4.87;100.00;99030.22;12243442;19;20094;-83
2022/11/19 07:03:30;;;;;;;9.77;4.93;;;;;;;4.92;100.00;99024.88;12218044;19;20011;-83
2022/11/19 07:07:32;;;;;;;10.23;4.50;;;;;;;4.95;100.00;99024.44;12237445;19;20018;-82
2022/11/19 07:11:34;;;;;;;10.82;5.82;;;;;;;4.96;100.00;99027.97;12233481;19;20014;-83
2022/11/19 07:15:36;;;;;;;12.17;6.53;;;;;;;4.94;100.00;99044.63;12209294;19;20030;-83
2022/11/19 07:19:38;;;;;;;7.70;4.05;;;;;;;4.93;100.00;99044.84;12230447;19;20123;-83
2022/11/19 07:23:40;;;;;;;11.68;5.53;;;;;;;4.92;100.00;99040.44;12230565;19;20999;-83
2022/11/19 07:27:42;;;;;;;12.32;6.13;;;;;;;4.86;100.00;99031.28;12208162;19;20495;-83
2022/11/19 07:31:49;;;;;;;15.87;8.10;;;;;;;4.82;100.00;99037.41;12240094;19;20095;-83
2022/11/19 07:35:50;;;;;;;17.65;7.00;;;;;;;4.80;100.00;99040.41;12243152;19;20020;-82
2022/11/19 07:39:52;;;;;;;17.15;7.90;;;;;;;4.73;100.00;99050.56;12247245;19;20010;-83
2022/11/19 07:43:54;;;;;;;13.30;6.35;;;;;;;4.77;100.00;99065.44;12223067;19;20073;-82
2022/11/19 07:47:55;;;;;;;15.05;7.00;;;;;;;4.76;100.00;99061.88;12199696;19;20011;-82
2022/11/19 07:51:57;;;;;;;12.50;5.82;;;;;;;4.72;100.00;99065.28;12223912;19;20010;-83
2022/11/19 07:56:00;;;;;;;10.37;4.50;;;;;;;4.71;100.00;99071.81;12226315;19;20034;-82
2022/11/19 08:00:06;;;;;;;14.43;6.00;;;;;;;4.68;100.00;99069.53;12203587;19;20020;-81
2022/11/19 08:04:13;;;;;;;17.40;6.40;;;;;;;4.63;100.00;99081.13;12217408;19;20023;-81
2022/11/19 08:08:15;;;;;;;12.75;6.32;;;;;;;4.61;100.00;99085.16;12216385;19;20038;-81
2022/11/19 08:12:17;;;;;;;14.70;6.50;;;;;;;4.57;100.00;99087.50;12191829;19;20007;-81
2022/11/19 08:20:41;;;;;;;12.63;5.70;;;;;;;4.51;100.00;99094.69;12218795;19;20038;-81
2022/11/19 08:24:43;;;;;;;16.95;7.57;;;;;;;4.54;100.00;99088.78;12190547;19;20453;-81
2022/11/19 08:28:45;;;;;;;12.57;6.20;;;;;;;4.51;100.00;99086.53;12205765;19;20360;-81
2022/11/19 08:32:46;;;;;;;17.38;7.55;;;;;;;4.46;100.00;99088.25;12180024;19;20433;-82
2022/11/19 08:36:48;;;;;;;11.63;5.60;;;;;;;4.47;100.00;99093.50;12205991;19;20007;-82
2022/11/19 08:40:52;;;;;;;;;;;;;;;4.54;100.00;99094.25;12226649;19;20068;-82
2022/11/19 08:44:54;;;;;;;17.77;7.05;;;;;;;4.57;100.00;99101.97;12186219;19;20237;-82
2022/11/19 08:48:56;;;;;;;13.93;6.55;;;;;;;4.50;100.00;99097.69;12227853;19;20018;-83
2022/11/19 08:52:59;;;;;;;18.58;7.57;;;;;;;4.49;100.00;99105.03;12251869;19;20018;-84
2022/11/19 08:57:01;;;;;;;15.95;6.90;;;;;;;4.47;100.00;99106.31;12202749;19;20010;-82
2022/11/19 09:01:10;;;;;;;13.15;6.13;;;;;;;4.43;100.00;99122.31;12224345;19;20321;-84
2022/11/19 09:05:12;;;;;;;13.82;6.90;;;;;;;4.32;100.00;99131.25;12226404;19;20011;-83
2022/11/19 09:09:15;;;;;;;;;;;;;;;4.29;100.00;99137.97;12231271;19;20014;-83
2022/11/19 09:13:16;;;;;;;16.10;7.15;;;;;;;4.27;100.00;99150.16;12223115;19;19938;-82
2022/11/19 09:17:18;;;;;;;14.82;6.18;;;;;;;4.29;100.00;99148.06;12223213;19;20011;-83
2022/11/19 09:21:20;;;;;;;19.25;8.13;;;;;;;4.26;100.00;99157.50;12203393;19;20059;-83
2022/11/19 09:25:21;;;;;;;18.70;7.80;;;;;;;4.26;100.00;99159.41;12224475;19;20014;-82
2022/11/19 09:29:23;;;;;;;16.25;6.75;;;;;;;4.26;100.00;99157.50;12228640;19;20022;-84
2022/11/19 09:33:28;;;;;;;18.73;7.20;;;;;;;4.27;100.00;99163.81;12202069;19;20080;-82
2022/11/19 09:37:32;;;;;;;13.93;7.13;;;;;;;4.23;100.00;99168.88;12223953;19;20038;-82
2022/11/19 09:41:46;;;;;;;13.65;6.22;;;;;;;4.23;100.00;99166.16;12224458;19;20015;-82
2022/11/19 09:46:09;;;;;;;15.20;5.72;;;;;;;4.20;100.00;99180.22;12198653;19;20365;-82
2022/11/19 09:50:17;;;;;;;12.32;6.32;;;;;;;4.12;100.00;99194.13;12223902;19;20018;-82
2022/11/19 09:54:20;;;;;;;15.73;6.95;;;;;;;4.08;100.00;99201.09;12203398;19;20030;-83
2022/11/19 09:58:36;;;;;;;14.40;5.90;;;;;;;4.15;100.00;99201.03;12227767;19;20006;-83
2022/11/19 10:02:38;;;;;;;14.00;6.72;;;;;;;4.15;100.00;99199.16;12224102;19;20010;-83
2022/11/19 10:06:55;;;;;;;18.08;6.93;;;;;;;4.20;100.00;99196.59;12197876;19;20031;-83
2022/11/19 10:11:35;;;;;;;14.48;6.95;;;;;;;4.32;100.00;99174.88;12220806;19;20337;-81
2022/11/19 10:15:48;;;;;;;15.50;6.55;;;;;;;4.37;100.00;99166.84;12194537;19;20483;-82
2022/11/19 10:20:07;;;;;;;14.32;6.68;;;;;;;4.52;100.00;99170.06;12219038;19;20011;-81
2022/11/19 10:24:16;;;;;;;14.90;6.57;;;;;;;4.57;100.00;99169.38;12196029;19;20021;-83
2022/11/19 10:28:21;;;;;;;15.77;6.78;;;;;;;4.68;100.00;99186.88;12217511;19;20003;-84
2022/11/19 10:32:29;;;;;;;16.27;6.85;;;;;;;4.67;100.00;99186.06;12218071;19;20010;-83
2022/11/19 10:36:57;;;;;;;15.13;6.72;;;;;;;4.71;100.00;99184.53;12193162;19;20098;-83
2022/11/19 10:41:08;;;;;;;14.77;6.68;;;;;;;4.93;100.00;99187.63;12220856;19;20020;-83
2022/11/19 10:45:18;;;;;;;13.15;6.60;;;;;;;5.30;100.00;99173.13;12197264;19;20010;-84
2022/11/19 10:49:19;;;;;;;11.80;5.70;;;;;;;5.58;100.00;99177.97;12221196;19;20035;-83
2022/11/19 10:53:36;;;;;;;11.63;6.07;;;;;;;5.96;100.00;99174.03;12216901;19;20015;-82
2022/11/19 10:57:39;;;;;;;15.10;7.55;;;;;;;6.32;100.00;99181.22;12194062;19;20051;-84
2022/11/19 11:01:44;;;;;;;14.23;6.80;;;;;;;6.48;100.00;99177.75;12219471;19;20014;-83
2022/11/19 11:05:54;;;;;;;12.68;5.93;;;;;;;6.52;100.00;99175.38;12194923;19;19998;-84
2022/11/19 11:09:56;;;;;;;12.77;6.18;;;;;;;6.42;100.00;99172.41;12221568;19;20062;-82
2022/11/19 11:18:24;;;;;;;10.43;6.18;;;;;;;6.33;100.00;99194.63;12206942;19;20007;-84
2022/11/19 11:22:27;;;;;;;11.60;6.43;;;;;;;6.17;100.00;99195.34;12221919;19;20006;-84
2022/11/19 11:26:32;;;;;;;12.95;6.18;;;;;;;6.03;100.00;99197.47;12228735;19;20011;-83
2022/11/19 11:30:34;;;;;;;12.73;6.78;;;;;;;5.88;100.00;99200.63;12206723;19;20042;-83
2022/11/19 11:34:40;;;;;;;10.50;5.53;;;;;;;5.80;100.00;99203.72;12222452;19;20018;-83
2022/11/19 11:38:48;;;;;;;12.40;6.72;;;;;;;5.67;100.00;99199.25;12210376;19;20019;-83
2022/11/19 11:42:51;;;;;;;12.60;6.13;;;;;;;5.62;100.00;99196.41;12227151;19;20015;-82
2022/11/19 11:47:00;;;;;;;11.40;5.55;;;;;;;5.82;100.00;99196.09;12226995;19;20022;-83
2022/11/19 11:51:03;;;;;;;9.88;5.03;;;;;;;5.84;100.00;99207.63;12205914;19;20437;-82
2022/11/19 11:55:12;;;;;;;11.75;5.88;;;;;;;5.71;100.00;99216.00;12227235;19;20082;-83
2022/11/19 11:59:24;;;;;;;9.88;5.05;;;;;;;5.62;100.00;99203.75;12228420;19;20066;-83
2022/11/19 12:03:25;;;;;;;11.30;5.43;;;;;;;5.65;100.00;99211.47;12206101;19;20796;-83
2022/11/19 12:08:10;;;;;;;10.35;4.97;;;;;;;5.61;100.00;99208.38;12229297;19;19999;-83
2022/11/19 12:12:30;;;;;;;9.65;4.45;;;;;;;5.52;100.00;99211.69;12221175;19;20025;-83
2022/11/19 12:16:40;;;;;;;9.98;4.72;;;;;;;5.52;100.00;99208.94;12242033;19;20017;-82
2022/11/19 12:21:24;;;;;;;9.75;4.82;;;;;;;5.61;100.00;99202.09;12222643;19;20007;-82
2022/11/19 12:25:39;;;;;;;8.98;4.57;;;;;;;5.65;100.00;99211.47;12245489;19;20039;-82
2022/11/19 12:29:57;;;;;;;9.10;4.13;;;;;;;5.61;100.00;99207.56;12251034;19;20018;-84
2022/11/19 12:34:12;;;;;;;7.70;4.35;;;;;;;5.51;100.00;99210.03;12224873;19;20035;-82
2022/11/19 12:38:24;;;;;;;7.57;4.55;;;;;;;5.38;100.00;99203.66;12242828;19;20038;-83
2022/11/19 12:42:34;;;;;;;9.20;4.43;;;;;;;5.40;100.00;99207.00;12250721;19;20011;-84
2022/11/19 12:47:01;;;;;;;7.75;4.38;;;;;;;5.49;100.00;99211.06;12273097;19;20011;-84
2022/11/19 12:51:18;;;;;;;8.93;4.43;;;;;;;5.53;100.00;99214.16;12233441;19;20019;-83
2022/11/19 12:55:50;;;;;;;9.20;4.35;;;;;;;5.47;100.00;99207.75;12271147;19;20003;-84
2022/11/19 13:00:09;;;;;;;7.13;4.25;;;;;;;5.34;100.00;99218.84;12239223;19;20010;-84
2022/11/19 13:04:36;;;;;;;7.93;4.30;;;;;;;5.46;100.00;99224.38;12253550;19;20025;-84
2022/11/19 13:08:48;;;;;;;9.73;4.22;;;;;;;5.62;100.00;99225.59;12252322;19;20014;-83
2022/11/19 13:12:53;;;;;;;7.57;4.30;;;;;;;5.61;100.00;99223.94;12226910;19;20007;-83
2022/11/19 13:16:57;;;;;;;10.45;4.35;;;;;;;5.61;100.00;99229.41;12246373;19;20018;-83
2022/11/19 13:21:04;;;;;;;7.25;4.00;;;;;;;5.60;100.00;99225.03;12220438;19;20081;-83
2022/11/19 13:25:17;;;;;;;8.00;3.92;;;;;;;5.55;100.00;99227.63;12244656;19;20595;-83
2022/11/19 13:29:43;;;;;;;7.68;3.63;;;;;;;5.47;100.00;99226.03;12246968;19;20014;-83
2022/11/19 13:33:51;;;;;;;9.75;4.07;;;;;;;5.30;100.00;99230.47;12246450;19;19995;-83
2022/11/19 13:38:14;;;;;;;9.23;4.55;;;;;;;5.21;100.00;99228.06;12276892;19;20013;-84
2022/11/19 13:46:46;;;;;;;8.13;4.07;;;;;;;5.05;100.00;99223.19;12252090;19;20027;-83
2022/11/19 13:50:50;;;;;;;7.70;4.22;;;;;;;5.03;100.00;99226.16;12225514;19;20008;-83
2022/11/19 13:54:55;;;;;;;9.20;4.90;;;;;;;4.94;100.00;99230.28;12246090;19;20575;-83
2022/11/19 13:58:58;;;;;;;9.38;4.63;;;;;;;4.92;100.00;99229.66;12251430;19;20006;-84
2022/11/19 14:03:14;;;;;;;9.43;4.75;;;;;;;4.88;100.00;99227.59;12225152;19;20099;-84
2022/11/19 14:07:50;;;;;;;10.15;4.78;;;;;;;4.83;100.00;99235.66;12246083;19;20513;-83
2022/11/19 14:12:33;;;;;;;8.60;4.65;;;;;;;4.80;100.00;99232.31;12221604;19;20017;-83
2022/11/19 14:30:40;;;;;;;13.25;6.32;;;;;;;4.65;100.00;99250.13;12219185;19;20049;-83
2022/11/19 14:34:46;;;;;;;15.43;6.22;;;;;;;4.56;100.00;99253.13;12230099;19;20439;-82
2022/11/19 14:39:00;;;;;;;14.65;6.60;;;;;;;4.51;100.00;99252.94;12215922;19;20014;-83
2022/11/19 14:47:22;;;;;;;13.55;7.28;;;;;;;4.46;100.00;99251.94;12238691;19;20010;-82
2022/11/19 14:51:39;;;;;;;15.93;7.53;;;;;;;4.46;100.00;99258.25;12212900;19;20041;-83
2022/11/19 14:55:52;;;;;;;13.48;6.97;;;;;;;4.45;100.00;99264.75;12238442;19;20434;-83
2022/11/19 14:59:59;;;;;;;13.95;6.82;;;;;;;4.41;100.00;99269.00;12217533;19;20019;-83
2022/11/19 15:04:06;;;;;;;16.27;7.80;;;;;;;4.36;100.00;99257.91;12242382;19;20018;-82
2022/11/19 15:08:17;;;;;;;14.45;7.28;;;;;;;4.31;100.00;99255.88;12243122;19;20103;-83
2022/11/19 15:12:20;;;;;;;27.02;12.13;;;;;;;4.31;100.00;99260.47;12223631;19;20014;-83
2022/11/19 15:16:26;;;;;;;19.83;9.20;;;;;;;4.27;100.00;99253.81;12244528;19;20022;-82
2022/11/19 15:21:06;;;;;;;21.30;9.57;;;;;;;4.25;100.00;99264.09;12225959;19;20790;-82
2022/11/19 15:25:23;;;;;;;15.48;7.50;;;;;;;4.33;100.00;99278.28;12192428;19;20019;-83
2022/11/19 15:29:28;;;;;;;19.52;8.48;;;;;;;4.35;100.00;99267.16;12215172;19;20070;-82
2022/11/19 15:34:04;;;;;;;17.58;9.18;;;;;;;4.37;100.00;99264.19;12190505;19;20765;-81
2022/11/19 15:38:11;;;;;;;18.92;8.57;;;;;;;4.35;100.00;99267.16;12213483;19;20038;-82
2022/11/19 15:42:28;;;;;;;18.23;8.77;;;;;;;4.27;100.00;99264.72;12191241;19;20014;-82
2022/11/19 15:46:30;;;;;;;17.63;8.90;;;;;;;4.24;100.00;99276.06;12220087;19;20011;-83
2022/11/19 15:50:35;;;;;;;21.08;10.10;;;;;;;4.21;100.00;99265.59;12225494;19;20561;-83
2022/11/19 15:54:38;;;;;;;18.90;9.35;;;;;;;4.17;100.00;99269.84;12197465;19;20418;-84
2022/11/19 15:58:44;;;;;;;32.10;11.93;;;;;;;4.10;100.00;99273.44;12218837;19;20015;-83
2022/11/19 16:02:50;;;;;;;17.95;9.10;;;;;;;4.06;100.00;99276.81;12220333;19;20003;-83
2022/11/19 16:06:54;;;;;;;21.02;9.90;;;;;;;3.99;100.00;99274.16;12225084;19;20027;-83
2022/11/19 16:20:19;;;;;;;21.60;10.27;;;;;;;3.93;100.00;99296.84;12223416;19;20104;-82
2022/11/19 16:28:44;;;;;;;;;;;;;;;3.85;100.00;99292.47;12235014;19;20074;-83
2022/11/19 16:32:47;;;;;;;21.98;11.25;;;;;;;3.90;100.00;99294.56;12223167;19;19938;-82
2022/11/19 16:36:49;;;;;;;23.58;10.70;;;;;;;3.87;100.00;99289.53;12222497;19;20436;-83
2022/11/19 16:45:23;;;;;;;23.00;10.40;;;;;;;3.80;100.00;99302.34;12199066;19;20134;-82
2022/11/19 16:49:48;;;;;;;25.77;12.23;;;;;;;3.77;100.00;99302.78;12228050;19;20365;-83
2022/11/19 16:53:50;;;;;;;23.52;11.93;;;;;;;3.69;100.00;99303.91;12198723;19;20015;-83
2022/11/19 16:57:55;;;;;;;22.35;10.32;;;;;;;3.63;100.00;99307.50;12221438;19;20082;-83
2022/11/19 17:01:58;;;;;;;26.92;10.10;;;;;;;3.58;100.00;99310.84;12223651;19;20015;-83
2022/11/19 17:06:03;;;;;;;20.77;10.30;;;;;;;3.53;100.00;99302.50;12198785;19;20074;-83
2022/11/19 17:10:22;;;;;;;22.10;10.80;;;;;;;3.52;100.00;99311.72;12221874;19;20007;-83
2022/11/19 17:14:34;;;;;;;20.02;10.00;;;;;;;3.49;100.00;99301.25;12219191;19;20066;-82
2022/11/19 17:18:36;;;;;;;20.83;9.93;;;;;;;3.50;100.00;99302.94;12201348;19;20113;-83
2022/11/19 17:22:38;;;;;;;28.00;12.32;;;;;;;3.39;100.00;99311.75;12218660;19;19998;-82
2022/11/19 17:26:46;;;;;;;35.95;16.77;;;;;;;3.42;100.00;99308.59;12222799;19;20027;-83
2022/11/19 17:30:48;;;;;;;44.90;19.48;;;;;;;3.38;100.00;99304.66;12202181;19;20093;-83
2022/11/19 17:34:54;;;;;;;29.15;12.20;;;;;;;3.37;100.00;99314.72;12226436;19;20466;-84
2022/11/19 17:38:55;;;;;;;27.20;11.85;;;;;;;3.37;100.00;99324.78;12202614;19;20346;-83
2022/11/19 17:47:19;;;;;;;27.52;11.85;;;;;;;3.54;100.00;99320.53;12255874;19;20045;-83
2022/11/19 17:51:24;;;;;;;26.65;11.75;;;;;;;3.53;100.00;99335.19;12203112;19;20016;-83
2022/11/19 17:55:27;;;;;;;23.25;11.85;;;;;;;3.49;100.00;99339.41;12218480;19;20633;-83
2022/11/19 17:59:29;;;;;;;24.90;11.50;;;;;;;3.51;100.00;99333.72;12222834;19;20024;-83
2022/11/19 18:03:42;;;;;;;26.05;11.98;;;;;;;3.54;100.00;99328.69;12195755;19;20006;-82
2022/11/19 18:07:45;;;;;;;28.52;11.27;;;;;;;3.48;100.00;99331.44;12215124;19;20472;-82
2022/11/19 18:11:46;;;;;;;26.65;10.77;;;;;;;3.49;100.00;99328.50;12214031;19;20115;-82
2022/11/19 18:15:48;;;;;;;26.23;11.70;;;;;;;3.42;100.00;99324.94;12179067;19;20535;-82
2022/11/19 18:19:52;;;;;;;33.28;13.90;;;;;;;3.38;100.00;99337.34;12208869;19;20006;-82
2022/11/19 18:23:54;;;;;;;28.58;11.80;;;;;;;3.38;100.00;99350.97;12192082;19;20038;-83
2022/11/19 18:27:55;;;;;;;28.42;11.73;;;;;;;3.45;100.00;99350.94;12218056;19;20139;-83
2022/11/19 18:31:57;;;;;;;27.23;12.75;;;;;;;3.50;100.00;99349.22;12215847;19;20144;-82
2022/11/19 18:35:59;;;;;;;25.00;12.18;;;;;;;3.48;100.00;99348.63;12197998;19;20042;-81
2022/11/19 18:40:00;;;;;;;23.80;11.00;;;;;;;3.42;100.00;99357.63;12218103;19;20124;-82
2022/11/19 18:48:22;;;;;;;32.55;14.48;;;;;;;3.42;100.00;99360.34;12195266;19;20565;-81
2022/11/19 18:52:24;;;;;;;36.30;14.02;;;;;;;3.48;100.00;99355.94;12216105;19;20373;-82
2022/11/19 18:56:26;;;;;;;39.83;17.05;;;;;;;3.41;100.00;99364.16;12213047;19;20026;-82
2022/11/19 19:00:28;;;;;;;36.70;15.40;;;;;;;3.46;100.00;99361.63;12191204;19;20099;-82
2022/11/19 19:04:31;;;;;;;28.63;13.30;;;;;;;3.52;100.00;99358.03;12208690;19;20010;-81
2022/11/19 19:08:33;;;;;;;28.88;12.57;;;;;;;3.58;100.00;99357.19;12210688;19;20006;-81
2022/11/19 19:12:35;;;;;;;31.85;13.07;;;;;;;3.59;100.00;99364.28;12186669;19;20776;-82
2022/11/19 19:16:36;;;;;;;30.90;13.25;;;;;;;3.61;100.00;99364.09;12208422;19;20035;-81
2022/11/19 19:20:38;;;;;;;31.65;13.13;;;;;;;3.57;100.00;99368.28;12206486;19;20657;-81
2022/11/19 19:24:40;;;;;;;31.92;15.15;;;;;;;3.57;100.00;99379.16;12186484;19;20129;-83
2022/11/19 19:28:46;;;;;;;32.03;14.40;;;;;;;3.54;100.00;99374.16;12209593;19;20527;-82
2022/11/19 19:32:48;;;;;;;34.03;14.05;;;;;;;3.59;100.00;99358.84;12208066;19;20011;-82
2022/11/19 19:36:49;;;;;;;36.15;16.25;;;;;;;3.61;100.00;99364.09;12203629;19;20007;-82
2022/11/19 19:41:01;;;;;;;26.90;13.07;;;;;;;3.58;100.00;99384.41;12211173;19;20036;-82
2022/11/19 19:45:03;;;;;;;32.75;13.07;;;;;;;3.62;100.00;99387.53;12182396;19;20483;-82
2022/11/19 19:49:05;;;;;;;34.03;14.35;;;;;;;3.68;100.00;99374.94;12206828;19;20058;-83
2022/11/19 19:53:08;;;;;;;27.67;12.50;;;;;;;3.68;100.00;99381.22;12207479;19;20078;-83
2022/11/19 19:57:10;;;;;;;32.83;14.05;;;;;;;3.62;100.00;99374.75;12181628;19;20121;-82
2022/11/19 20:01:19;;;;;;;27.77;13.65;;;;;;;3.60;100.00;99384.22;12208558;19;20068;-82
2022/11/19 20:05:21;;;;;;;32.00;13.55;;;;;;;3.58;100.00;99389.03;12205946;19;20014;-83